sensor_id;sensor_type;location;lat;lon;timestamp;pressure;altitude;pressure_sealevel;temperature;humidity
69909;BME280;57190;47.918;8.112;2023-05-03T00:00:07;91463.28;;;6.13;75.58
69909;BME280;57190;47.918;8.112;2023-05-03T00:02:34;91457.50;;;6.05;75.49
69909;BME280;57190;47.918;8.112;2023-05-03T00:05:05;91456.16;;;5.95;75.98
69909;BME280;57190;47.918;8.112;2023-05-03T00:07:36;91453.94;;;5.92;76.26
69909;BME280;57190;47.918;8.112;2023-05-03T00:10:02;91454.63;;;5.88;76.55
69909;BME280;57190;47.918;8.112;2023-05-03T00:12:27;91456.91;;;5.84;76.73
69909;BME280;57190;47.918;8.112;2023-05-03T00:14:53;91455.16;;;5.78;77.01
69909;BME280;57190;47.918;8.112;2023-05-03T00:17:18;91456.66;;;5.74;77.15
69909;BME280;57190;47.918;8.112;2023-05-03T00:19:44;91459.38;;;5.67;77.43
69909;BME280;57190;47.918;8.112;2023-05-03T00:22:09;91465.63;;;5.54;77.65
69909;BME280;57190;47.918;8.112;2023-05-03T00:24:36;91457.75;;;5.47;78.77
69909;BME280;57190;47.918;8.112;2023-05-03T00:27:03;91458.94;;;5.51;79.01
69909;BME280;57190;47.918;8.112;2023-05-03T00:29:29;91454.44;;;5.52;78.55
69909;BME280;57190;47.918;8.112;2023-05-03T00:31:54;91447.84;;;5.61;78.86
69909;BME280;57190;47.918;8.112;2023-05-03T00:34:20;91452.75;;;5.76;78.20
69909;BME280;57190;47.918;8.112;2023-05-03T00:36:45;91440.47;;;5.82;78.16
69909;BME280;57190;47.918;8.112;2023-05-03T00:39:11;91444.72;;;5.83;77.46
69909;BME280;57190;47.918;8.112;2023-05-03T00:41:38;91437.91;;;5.75;77.88
69909;BME280;57190;47.918;8.112;2023-05-03T00:44:04;91438.50;;;5.77;77.86
69909;BME280;57190;47.918;8.112;2023-05-03T00:46:30;91431.81;;;5.75;78.03
69909;BME280;57190;47.918;8.112;2023-05-03T00:48:55;91441.44;;;5.69;77.66
69909;BME280;57190;47.918;8.112;2023-05-03T00:51:22;91437.97;;;5.69;77.58
69909;BME280;57190;47.918;8.112;2023-05-03T00:53:48;91436.59;;;5.66;77.96
69909;BME280;57190;47.918;8.112;2023-05-03T00:56:17;91439.22;;;5.66;77.74
69909;BME280;57190;47.918;8.112;2023-05-03T00:58:47;91432.78;;;5.62;77.62
69909;BME280;57190;47.918;8.112;2023-05-03T01:01:13;91432.63;;;5.57;78.15
69909;BME280;57190;47.918;8.112;2023-05-03T01:03:39;91434.31;;;5.51;77.99
69909;BME280;57190;47.918;8.112;2023-05-03T01:06:24;91442.72;;;5.48;78.77
69909;BME280;57190;47.918;8.112;2023-05-03T01:09:07;91441.31;;;5.45;78.96
69909;BME280;57190;47.918;8.112;2023-05-03T01:14:35;91432.78;;;5.43;79.37
69909;BME280;57190;47.918;8.112;2023-05-03T01:17:11;91431.53;;;5.46;78.63
69909;BME280;57190;47.918;8.112;2023-05-03T01:19:43;91423.59;;;5.46;78.69
69909;BME280;57190;47.918;8.112;2023-05-03T01:22:25;91426.84;;;5.48;79.36
69909;BME280;57190;47.918;8.112;2023-05-03T01:25:09;91425.56;;;5.50;79.01
69909;BME280;57190;47.918;8.112;2023-05-03T01:27:36;91419.25;;;5.51;79.26
69909;BME280;57190;47.918;8.112;2023-05-03T01:30:07;91418.66;;;5.49;79.07
69909;BME280;57190;47.918;8.112;2023-05-03T01:36:03;91410.06;;;5.35;79.81
69909;BME280;57190;47.918;8.112;2023-05-03T01:38:32;91406.16;;;5.38;79.59
69909;BME280;57190;47.918;8.112;2023-05-03T01:41:01;91410.00;;;5.42;79.53
69909;BME280;57190;47.918;8.112;2023-05-03T01:43:30;91416.69;;;5.45;80.11
69909;BME280;57190;47.918;8.112;2023-05-03T01:45:58;91417.94;;;5.42;79.89
69909;BME280;57190;47.918;8.112;2023-05-03T01:48:24;91431.41;;;5.41;79.75
69909;BME280;57190;47.918;8.112;2023-05-03T01:50:50;91423.31;;;5.35;79.49
69909;BME280;57190;47.918;8.112;2023-05-03T01:53:15;91418.91;;;5.29;80.43
69909;BME280;57190;47.918;8.112;2023-05-03T01:55:41;91414.69;;;5.22;80.08
69909;BME280;57190;47.918;8.112;2023-05-03T01:58:06;91416.41;;;5.16;80.48
69909;BME280;57190;47.918;8.112;2023-05-03T02:00:32;91413.97;;;5.14;81.15
69909;BME280;57190;47.918;8.112;2023-05-03T02:02:58;91405.69;;;5.11;80.57
69909;BME280;57190;47.918;8.112;2023-05-03T02:05:23;91416.53;;;5.02;80.66
69909;BME280;57190;47.918;8.112;2023-05-03T02:07:50;91416.41;;;4.97;80.95
69909;BME280;57190;47.918;8.112;2023-05-03T02:10:16;91416.59;;;4.96;81.04
69909;BME280;57190;47.918;8.112;2023-05-03T02:12:42;91418.22;;;4.97;81.91
69909;BME280;57190;47.918;8.112;2023-05-03T02:15:09;91416.19;;;4.99;81.29
69909;BME280;57190;47.918;8.112;2023-05-03T02:17:35;91411.50;;;5.01;81.35
69909;BME280;57190;47.918;8.112;2023-05-03T02:20:02;91415.16;;;5.00;81.43
69909;BME280;57190;47.918;8.112;2023-05-03T02:22:30;91410.88;;;4.99;81.68
69909;BME280;57190;47.918;8.112;2023-05-03T02:24:56;91408.84;;;5.01;82.21
69909;BME280;57190;47.918;8.112;2023-05-03T02:27:23;91405.97;;;5.02;81.81
69909;BME280;57190;47.918;8.112;2023-05-03T02:29:48;91404.34;;;5.01;81.75
69909;BME280;57190;47.918;8.112;2023-05-03T02:32:14;91405.84;;;4.97;81.88
69909;BME280;57190;47.918;8.112;2023-05-03T02:34:40;91395.84;;;4.99;81.66
69909;BME280;57190;47.918;8.112;2023-05-03T02:37:06;91400.09;;;5.00;81.60
69909;BME280;57190;47.918;8.112;2023-05-03T02:39:31;91392.66;;;4.91;81.90
69909;BME280;57190;47.918;8.112;2023-05-03T02:41:57;91393.31;;;4.86;82.05
69909;BME280;57190;47.918;8.112;2023-05-03T02:44:22;91395.19;;;4.85;81.92
69909;BME280;57190;47.918;8.112;2023-05-03T02:46:48;91390.53;;;4.81;82.06
69909;BME280;57190;47.918;8.112;2023-05-03T02:49:13;91391.63;;;4.73;81.27
69909;BME280;57190;47.918;8.112;2023-05-03T02:51:39;91385.59;;;4.66;82.38
69909;BME280;57190;47.918;8.112;2023-05-03T02:54:05;91392.72;;;4.65;82.37
69909;BME280;57190;47.918;8.112;2023-05-03T02:56:31;91390.66;;;4.67;82.48
69909;BME280;57190;47.918;8.112;2023-05-03T02:58:57;91391.69;;;4.66;82.56
69909;BME280;57190;47.918;8.112;2023-05-03T03:01:23;91394.56;;;4.65;82.72
69909;BME280;57190;47.918;8.112;2023-05-03T03:03:48;91393.16;;;4.62;82.86
69909;BME280;57190;47.918;8.112;2023-05-03T03:06:14;91387.50;;;4.59;82.98
69909;BME280;57190;47.918;8.112;2023-05-03T03:08:39;91392.41;;;4.55;82.78
69909;BME280;57190;47.918;8.112;2023-05-03T03:11:05;91388.53;;;4.57;82.77
69909;BME280;57190;47.918;8.112;2023-05-03T03:13:31;91389.78;;;4.55;82.86
69909;BME280;57190;47.918;8.112;2023-05-03T03:15:57;91382.28;;;4.52;82.88
69909;BME280;57190;47.918;8.112;2023-05-03T03:18:23;91385.19;;;4.44;82.79
69909;BME280;57190;47.918;8.112;2023-05-03T03:20:48;91382.19;;;4.40;82.95
69909;BME280;57190;47.918;8.112;2023-05-03T03:23:14;91385.63;;;4.40;83.25
69909;BME280;57190;47.918;8.112;2023-05-03T03:25:40;91381.75;;;4.43;83.84
69909;BME280;57190;47.918;8.112;2023-05-03T03:28:06;91385.38;;;4.49;83.48
69909;BME280;57190;47.918;8.112;2023-05-03T03:30:32;91389.59;;;4.50;83.43
69909;BME280;57190;47.918;8.112;2023-05-03T03:32:57;91392.47;;;4.48;82.71
69909;BME280;57190;47.918;8.112;2023-05-03T03:35:23;91392.03;;;4.51;82.53
69909;BME280;57190;47.918;8.112;2023-05-03T03:37:50;91379.81;;;4.57;82.60
69909;BME280;57190;47.918;8.112;2023-05-03T03:40:15;91382.44;;;4.57;82.76
69909;BME280;57190;47.918;8.112;2023-05-03T03:42:41;91380.22;;;4.54;82.63
69909;BME280;57190;47.918;8.112;2023-05-03T03:45:07;91377.81;;;4.52;83.13
69909;BME280;57190;47.918;8.112;2023-05-03T03:47:32;91384.75;;;4.47;82.89
69909;BME280;57190;47.918;8.112;2023-05-03T03:49:59;91379.53;;;4.40;83.68
69909;BME280;57190;47.918;8.112;2023-05-03T03:52:26;91377.72;;;4.40;84.23
69909;BME280;57190;47.918;8.112;2023-05-03T03:54:52;91380.13;;;4.42;83.42
69909;BME280;57190;47.918;8.112;2023-05-03T03:57:17;91386.22;;;4.43;83.49
69909;BME280;57190;47.918;8.112;2023-05-03T03:59:43;91384.03;;;4.39;83.03
69909;BME280;57190;47.918;8.112;2023-05-03T04:02:09;91384.66;;;4.35;83.49
69909;BME280;57190;47.918;8.112;2023-05-03T04:04:34;91383.28;;;4.32;83.49
69909;BME280;57190;47.918;8.112;2023-05-03T04:07:00;91386.34;;;4.29;83.70
69909;BME280;57190;47.918;8.112;2023-05-03T04:09:26;91382.88;;;4.29;83.70
69909;BME280;57190;47.918;8.112;2023-05-03T04:11:52;91388.56;;;4.32;84.14
69909;BME280;57190;47.918;8.112;2023-05-03T04:14:17;91391.75;;;4.34;83.67
69909;BME280;57190;47.918;8.112;2023-05-03T04:16:43;91386.94;;;4.31;83.16
69909;BME280;57190;47.918;8.112;2023-05-03T04:19:09;91388.56;;;4.32;83.66
69909;BME280;57190;47.918;8.112;2023-05-03T04:21:34;91400.34;;;4.30;83.33
69909;BME280;57190;47.918;8.112;2023-05-03T04:24:00;91388.38;;;4.27;83.18
69909;BME280;57190;47.918;8.112;2023-05-03T04:26:28;91395.31;;;4.21;83.07
69909;BME280;57190;47.918;8.112;2023-05-03T04:28:54;91406.72;;;4.22;82.61
69909;BME280;57190;47.918;8.112;2023-05-03T04:31:19;91405.72;;;4.16;82.37
69909;BME280;57190;47.918;8.112;2023-05-03T04:33:46;91398.06;;;4.08;82.89
69909;BME280;57190;47.918;8.112;2023-05-03T04:36:11;91398.31;;;4.06;82.56
69909;BME280;57190;47.918;8.112;2023-05-03T04:38:41;91401.09;;;4.12;82.70
69909;BME280;57190;47.918;8.112;2023-05-03T04:41:08;91403.50;;;4.13;82.40
69909;BME280;57190;47.918;8.112;2023-05-03T04:43:34;91398.94;;;4.27;82.41
69909;BME280;57190;47.918;8.112;2023-05-03T04:46:00;91396.91;;;5.47;78.34
69909;BME280;57190;47.918;8.112;2023-05-03T04:48:28;91399.56;;;6.74;73.76
69909;BME280;57190;47.918;8.112;2023-05-03T04:50:53;91397.72;;;7.63;70.48
69909;BME280;57190;47.918;8.112;2023-05-03T04:53:19;91397.84;;;7.85;68.67
69909;BME280;57190;47.918;8.112;2023-05-03T04:55:45;91402.09;;;7.69;68.63
69909;BME280;57190;47.918;8.112;2023-05-03T04:58:12;91403.25;;;6.50;70.78
69909;BME280;57190;47.918;8.112;2023-05-03T05:00:40;91408.53;;;5.77;73.15
69909;BME280;57190;47.918;8.112;2023-05-03T05:03:06;91397.13;;;5.46;74.45
69909;BME280;57190;47.918;8.112;2023-05-03T05:05:33;91407.72;;;5.46;75.48
69909;BME280;57190;47.918;8.112;2023-05-03T05:07:58;91409.13;;;5.79;74.43
69909;BME280;57190;47.918;8.112;2023-05-03T05:10:24;91409.69;;;5.50;75.08
69909;BME280;57190;47.918;8.112;2023-05-03T05:13:18;91404.03;;;5.47;75.79
69909;BME280;57190;47.918;8.112;2023-05-03T05:15:44;91413.38;;;5.49;75.87
69909;BME280;57190;47.918;8.112;2023-05-03T05:18:09;91412.53;;;5.67;76.76
69909;BME280;57190;47.918;8.112;2023-05-03T05:20:35;91406.00;;;6.01;76.16
69909;BME280;57190;47.918;8.112;2023-05-03T05:23:00;91408.19;;;6.46;74.77
69909;BME280;57190;47.918;8.112;2023-05-03T05:25:26;91408.44;;;6.80;73.52
69909;BME280;57190;47.918;8.112;2023-05-03T05:27:51;91411.88;;;6.57;73.96
69909;BME280;57190;47.918;8.112;2023-05-03T05:30:17;91405.06;;;6.37;74.39
69909;BME280;57190;47.918;8.112;2023-05-03T05:32:43;91413.38;;;6.41;75.10
69909;BME280;57190;47.918;8.112;2023-05-03T05:35:09;91412.38;;;6.66;74.56
69909;BME280;57190;47.918;8.112;2023-05-03T05:37:34;91412.97;;;6.91;75.22
69909;BME280;57190;47.918;8.112;2023-05-03T05:40:00;91421.34;;;6.76;74.52
69909;BME280;57190;47.918;8.112;2023-05-03T05:42:25;91417.66;;;6.66;75.04
69909;BME280;57190;47.918;8.112;2023-05-03T05:44:51;91418.00;;;6.57;75.22
69909;BME280;57190;47.918;8.112;2023-05-03T05:47:16;91413.50;;;6.70;75.00
69909;BME280;57190;47.918;8.112;2023-05-03T05:49:42;91415.22;;;6.76;74.56
69909;BME280;57190;47.918;8.112;2023-05-03T05:52:07;91416.84;;;6.89;74.63
69909;BME280;57190;47.918;8.112;2023-05-03T05:54:33;91414.53;;;6.92;74.97
69909;BME280;57190;47.918;8.112;2023-05-03T05:56:58;91417.56;;;7.08;74.52
69909;BME280;57190;47.918;8.112;2023-05-03T05:59:25;91417.66;;;7.13;74.75
69909;BME280;57190;47.918;8.112;2023-05-03T06:01:51;91420.66;;;7.17;74.65
69909;BME280;57190;47.918;8.112;2023-05-03T06:04:16;91412.47;;;7.30;74.88
69909;BME280;57190;47.918;8.112;2023-05-03T06:06:42;91418.44;;;7.37;74.70
69909;BME280;57190;47.918;8.112;2023-05-03T06:09:07;91417.41;;;7.38;74.16
69909;BME280;57190;47.918;8.112;2023-05-03T06:11:34;91417.59;;;7.49;74.61
69909;BME280;57190;47.918;8.112;2023-05-03T06:14:00;91411.00;;;7.63;74.36
69909;BME280;57190;47.918;8.112;2023-05-03T06:16:28;91416.28;;;7.75;73.65
69909;BME280;57190;47.918;8.112;2023-05-03T06:18:54;91418.44;;;7.78;73.90
69909;BME280;57190;47.918;8.112;2023-05-03T06:21:20;91419.88;;;7.98;73.78
69909;BME280;57190;47.918;8.112;2023-05-03T06:23:45;91415.31;;;8.10;73.77
69909;BME280;57190;47.918;8.112;2023-05-03T06:26:11;91416.31;;;8.21;73.52
69909;BME280;57190;47.918;8.112;2023-05-03T06:28:36;91416.72;;;8.30;74.15
69909;BME280;57190;47.918;8.112;2023-05-03T06:31:02;91424.53;;;8.48;73.36
69909;BME280;57190;47.918;8.112;2023-05-03T06:33:27;91412.44;;;8.58;73.55
69909;BME280;57190;47.918;8.112;2023-05-03T06:35:53;91417.94;;;8.68;72.58
69909;BME280;57190;47.918;8.112;2023-05-03T06:38:19;91413.66;;;8.67;72.60
69909;BME280;57190;47.918;8.112;2023-05-03T06:40:45;91409.56;;;8.76;72.49
69909;BME280;57190;47.918;8.112;2023-05-03T06:43:11;91414.44;;;9.02;72.62
69909;BME280;57190;47.918;8.112;2023-05-03T06:45:38;91403.69;;;9.13;71.94
69909;BME280;57190;47.918;8.112;2023-05-03T06:48:03;91409.16;;;9.24;71.97
69909;BME280;57190;47.918;8.112;2023-05-03T06:50:30;91405.47;;;9.25;71.62
69909;BME280;57190;47.918;8.112;2023-05-03T06:52:56;91410.28;;;9.28;71.63
69909;BME280;57190;47.918;8.112;2023-05-03T06:55:21;91411.91;;;9.29;71.10
69909;BME280;57190;47.918;8.112;2023-05-03T06:57:47;91416.31;;;9.40;70.42
69909;BME280;57190;47.918;8.112;2023-05-03T07:00:13;91414.25;;;9.25;70.98
69909;BME280;57190;47.918;8.112;2023-05-03T07:02:40;91409.69;;;9.43;70.71
69909;BME280;57190;47.918;8.112;2023-05-03T07:05:06;91417.34;;;9.56;70.16
69909;BME280;57190;47.918;8.112;2023-05-03T07:07:33;91407.00;;;9.60;70.20
69909;BME280;57190;47.918;8.112;2023-05-03T07:09:59;91412.25;;;9.77;69.67
69909;BME280;57190;47.918;8.112;2023-05-03T07:12:24;91409.63;;;9.82;69.53
69909;BME280;57190;47.918;8.112;2023-05-03T07:14:53;91405.25;;;9.93;68.62
69909;BME280;57190;47.918;8.112;2023-05-03T07:17:19;91402.47;;;10.10;68.10
69909;BME280;57190;47.918;8.112;2023-05-03T07:19:46;91398.84;;;10.76;65.41
69909;BME280;57190;47.918;8.112;2023-05-03T07:22:13;91388.88;;;11.37;64.38
69909;BME280;57190;47.918;8.112;2023-05-03T07:24:39;91383.06;;;12.08;61.44
69909;BME280;57190;47.918;8.112;2023-05-03T07:27:04;91379.66;;;11.70;63.83
69909;BME280;57190;47.918;8.112;2023-05-03T07:29:31;91377.22;;;16.57;50.71
69909;BME280;57190;47.918;8.112;2023-05-03T07:31:56;91369.06;;;16.62;48.53
69909;BME280;57190;47.918;8.112;2023-05-03T07:34:22;91374.22;;;17.49;46.93
69909;BME280;57190;47.918;8.112;2023-05-03T07:36:47;91375.84;;;16.60;47.80
69909;BME280;57190;47.918;8.112;2023-05-03T07:39:13;91372.56;;;14.83;51.34
69909;BME280;57190;47.918;8.112;2023-05-03T07:41:38;91376.44;;;13.25;55.94
69909;BME280;57190;47.918;8.112;2023-05-03T07:44:04;91368.72;;;12.66;57.80
69909;BME280;57190;47.918;8.112;2023-05-03T07:46:29;91376.03;;;11.92;58.17
69909;BME280;57190;47.918;8.112;2023-05-03T07:49:00;91367.59;;;12.52;57.68
69909;BME280;57190;47.918;8.112;2023-05-03T07:51:26;91361.03;;;13.82;53.24
69909;BME280;57190;47.918;8.112;2023-05-03T07:53:53;91367.31;;;13.51;53.37
69909;BME280;57190;47.918;8.112;2023-05-03T07:56:19;91375.28;;;13.77;54.08
69909;BME280;57190;47.918;8.112;2023-05-03T07:58:45;91370.41;;;13.84;53.90
69909;BME280;57190;47.918;8.112;2023-05-03T08:01:11;91371.34;;;13.23;54.27
69909;BME280;57190;47.918;8.112;2023-05-03T08:03:37;91379.66;;;12.90;55.60
69909;BME280;57190;47.918;8.112;2023-05-03T08:06:03;91362.00;;;12.89;55.28
69909;BME280;57190;47.918;8.112;2023-05-03T08:08:28;91381.28;;;13.12;55.99
69909;BME280;57190;47.918;8.112;2023-05-03T08:10:56;91369.50;;;13.13;55.28
69909;BME280;57190;47.918;8.112;2023-05-03T08:13:21;91376.69;;;13.18;55.23
69909;BME280;57190;47.918;8.112;2023-05-03T08:15:48;91372.69;;;13.26;54.48
69909;BME280;57190;47.918;8.112;2023-05-03T08:18:13;91383.41;;;13.00;55.71
69909;BME280;57190;47.918;8.112;2023-05-03T08:20:39;91378.56;;;13.23;55.82
69909;BME280;57190;47.918;8.112;2023-05-03T08:23:04;91387.41;;;13.18;55.53
69909;BME280;57190;47.918;8.112;2023-05-03T08:25:30;91387.16;;;13.45;55.50
69909;BME280;57190;47.918;8.112;2023-05-03T08:27:55;91385.53;;;13.55;53.87
69909;BME280;57190;47.918;8.112;2023-05-03T08:30:21;91390.06;;;13.54;53.94
69909;BME280;57190;47.918;8.112;2023-05-03T08:32:47;91383.22;;;14.03;54.65
69909;BME280;57190;47.918;8.112;2023-05-03T08:35:13;91391.56;;;13.96;53.34
69909;BME280;57190;47.918;8.112;2023-05-03T08:37:40;91388.19;;;13.60;53.71
69909;BME280;57190;47.918;8.112;2023-05-03T08:40:07;91379.25;;;13.85;54.13
69909;BME280;57190;47.918;8.112;2023-05-03T08:42:38;91378.03;;;14.22;54.09
69909;BME280;57190;47.918;8.112;2023-05-03T08:45:03;91390.91;;;14.25;52.58
69909;BME280;57190;47.918;8.112;2023-05-03T08:47:30;91386.81;;;14.33;51.85
69909;BME280;57190;47.918;8.112;2023-05-03T08:50:04;91383.97;;;14.64;51.78
69909;BME280;57190;47.918;8.112;2023-05-03T08:52:33;91380.78;;;14.97;51.79
69909;BME280;57190;47.918;8.112;2023-05-03T08:54:58;91386.38;;;15.05;52.37
69909;BME280;57190;47.918;8.112;2023-05-03T08:57:24;91382.50;;;15.17;50.02
69909;BME280;57190;47.918;8.112;2023-05-03T08:59:52;91383.97;;;14.64;50.38
69909;BME280;57190;47.918;8.112;2023-05-03T09:02:18;91389.88;;;14.66;49.52
69909;BME280;57190;47.918;8.112;2023-05-03T09:04:45;91381.50;;;15.07;47.98
69909;BME280;57190;47.918;8.112;2023-05-03T09:07:12;91383.78;;;15.24;48.66
69909;BME280;57190;47.918;8.112;2023-05-03T09:09:37;91387.94;;;15.70;49.04
69909;BME280;57190;47.918;8.112;2023-05-03T09:12:04;91389.81;;;15.40;47.59
69909;BME280;57190;47.918;8.112;2023-05-03T09:14:31;91390.19;;;15.29;49.43
69909;BME280;57190;47.918;8.112;2023-05-03T09:17:16;91388.09;;;15.55;48.74
69909;BME280;57190;47.918;8.112;2023-05-03T09:19:55;91401.13;;;15.67;47.10
69909;BME280;57190;47.918;8.112;2023-05-03T09:22:22;91403.31;;;15.65;47.55
69909;BME280;57190;47.918;8.112;2023-05-03T09:24:52;91402.69;;;15.73;46.80
69909;BME280;57190;47.918;8.112;2023-05-03T09:27:19;91400.94;;;15.87;46.65
69909;BME280;57190;47.918;8.112;2023-05-03T09:29:48;91410.28;;;15.95;46.96
69909;BME280;57190;47.918;8.112;2023-05-03T09:32:14;91402.78;;;16.16;47.49
69909;BME280;57190;47.918;8.112;2023-05-03T09:34:40;91394.94;;;16.39;46.53
69909;BME280;57190;47.918;8.112;2023-05-03T09:37:05;91402.28;;;16.96;47.47
69909;BME280;57190;47.918;8.112;2023-05-03T09:39:31;91400.50;;;16.86;45.00
69909;BME280;57190;47.918;8.112;2023-05-03T09:41:57;91395.03;;;16.72;46.27
69909;BME280;57190;47.918;8.112;2023-05-03T09:44:44;91392.44;;;16.67;44.91
69909;BME280;57190;47.918;8.112;2023-05-03T09:47:13;91398.59;;;16.67;45.66
69909;BME280;57190;47.918;8.112;2023-05-03T09:49:38;91394.00;;;16.30;46.49
69909;BME280;57190;47.918;8.112;2023-05-03T09:52:05;91405.34;;;16.27;45.66
69909;BME280;57190;47.918;8.112;2023-05-03T09:54:32;91393.94;;;16.35;45.38
69909;BME280;57190;47.918;8.112;2023-05-03T09:56:59;91399.78;;;16.61;44.38
69909;BME280;57190;47.918;8.112;2023-05-03T09:59:26;91397.03;;;16.86;45.06
69909;BME280;57190;47.918;8.112;2023-05-03T10:01:57;91397.41;;;16.35;42.99
69909;BME280;57190;47.918;8.112;2023-05-03T10:04:25;91398.25;;;16.36;43.45
69909;BME280;57190;47.918;8.112;2023-05-03T10:07:00;91396.34;;;16.37;44.44
69909;BME280;57190;47.918;8.112;2023-05-03T10:09:47;91394.13;;;16.19;43.70
69909;BME280;57190;47.918;8.112;2023-05-03T10:12:13;91402.59;;;16.08;43.81
69909;BME280;57190;47.918;8.112;2023-05-03T10:14:46;91397.56;;;15.47;43.65
69909;BME280;57190;47.918;8.112;2023-05-03T10:17:17;91402.72;;;15.97;44.66
69909;BME280;57190;47.918;8.112;2023-05-03T10:19:51;91398.63;;;15.76;46.31
69909;BME280;57190;47.918;8.112;2023-05-03T10:22:17;91400.28;;;16.63;44.44
69909;BME280;57190;47.918;8.112;2023-05-03T10:27:49;91396.22;;;16.85;43.21
69909;BME280;57190;47.918;8.112;2023-05-03T10:32:50;91396.47;;;16.26;43.71
69909;BME280;57190;47.918;8.112;2023-05-03T10:35:16;91396.41;;;16.31;44.21
69909;BME280;57190;47.918;8.112;2023-05-03T10:37:44;91396.63;;;16.35;44.18
69909;BME280;57190;47.918;8.112;2023-05-03T10:40:16;91393.72;;;16.31;44.57
69909;BME280;57190;47.918;8.112;2023-05-03T10:42:53;91392.09;;;16.11;44.00
69909;BME280;57190;47.918;8.112;2023-05-03T10:45:24;91394.78;;;16.11;43.51
69909;BME280;57190;47.918;8.112;2023-05-03T10:50:35;91379.97;;;16.71;43.59
69909;BME280;57190;47.918;8.112;2023-05-03T10:53:00;91374.31;;;16.73;43.66
69909;BME280;57190;47.918;8.112;2023-05-03T10:55:26;91383.25;;;16.49;42.41
69909;BME280;57190;47.918;8.112;2023-05-03T10:57:57;91375.25;;;16.63;44.05
69909;BME280;57190;47.918;8.112;2023-05-03T11:05:48;91382.00;;;15.98;44.28
69909;BME280;57190;47.918;8.112;2023-05-03T11:08:17;91374.34;;;16.29;45.85
69909;BME280;57190;47.918;8.112;2023-05-03T11:10:44;91381.41;;;16.25;43.07
69909;BME280;57190;47.918;8.112;2023-05-03T11:13:10;91380.91;;;15.99;43.07
69909;BME280;57190;47.918;8.112;2023-05-03T11:15:36;91366.06;;;15.77;44.06
69909;BME280;57190;47.918;8.112;2023-05-03T11:18:05;91377.91;;;16.25;44.35
69909;BME280;57190;47.918;8.112;2023-05-03T11:20:31;91361.97;;;16.09;43.58
69909;BME280;57190;47.918;8.112;2023-05-03T11:22:56;91364.25;;;16.21;44.07
69909;BME280;57190;47.918;8.112;2023-05-03T11:25:22;91365.84;;;16.41;43.64
69909;BME280;57190;47.918;8.112;2023-05-03T11:27:48;91364.59;;;16.33;43.85
69909;BME280;57190;47.918;8.112;2023-05-03T11:30:15;91364.78;;;15.99;43.92
69909;BME280;57190;47.918;8.112;2023-05-03T11:32:41;91353.41;;;15.78;42.41
69909;BME280;57190;47.918;8.112;2023-05-03T11:35:16;91352.84;;;16.05;43.10
69909;BME280;57190;47.918;8.112;2023-05-03T11:37:42;91348.78;;;16.08;44.26
69909;BME280;57190;47.918;8.112;2023-05-03T11:40:15;91358.19;;;16.10;44.42
69909;BME280;57190;47.918;8.112;2023-05-03T11:43:03;91360.59;;;16.12;42.59
69909;BME280;57190;47.918;8.112;2023-05-03T11:45:43;91368.97;;;16.29;45.94
69909;BME280;57190;47.918;8.112;2023-05-03T11:48:16;91361.63;;;16.35;42.98
69909;BME280;57190;47.918;8.112;2023-05-03T11:50:49;91354.44;;;16.49;45.83
69909;BME280;57190;47.918;8.112;2023-05-03T11:53:25;91373.91;;;16.22;44.86
69909;BME280;57190;47.918;8.112;2023-05-03T11:55:57;91365.56;;;15.75;45.13
69909;BME280;57190;47.918;8.112;2023-05-03T11:58:27;91368.41;;;15.60;44.58
69909;BME280;57190;47.918;8.112;2023-05-03T12:00:55;91358.50;;;15.79;44.90
69909;BME280;57190;47.918;8.112;2023-05-03T12:03:25;91372.44;;;16.11;45.74
69909;BME280;57190;47.918;8.112;2023-05-03T12:05:54;91366.69;;;15.98;44.59
69909;BME280;57190;47.918;8.112;2023-05-03T12:08:26;91362.88;;;15.99;44.67
69909;BME280;57190;47.918;8.112;2023-05-03T12:10:55;91363.28;;;16.12;44.76
69909;BME280;57190;47.918;8.112;2023-05-03T12:16:06;91348.09;;;16.97;43.86
69909;BME280;57190;47.918;8.112;2023-05-03T12:18:56;91359.81;;;16.69;44.33
69909;BME280;57190;47.918;8.112;2023-05-03T12:21:45;91353.13;;;16.66;42.24
69909;BME280;57190;47.918;8.112;2023-05-03T12:24:11;91356.28;;;16.11;44.38
69909;BME280;57190;47.918;8.112;2023-05-03T12:26:37;91342.94;;;16.44;43.42
69909;BME280;57190;47.918;8.112;2023-05-03T12:29:02;91353.66;;;16.49;42.86
69909;BME280;57190;47.918;8.112;2023-05-03T12:31:28;91347.53;;;16.62;42.92
69909;BME280;57190;47.918;8.112;2023-05-03T12:33:54;91352.69;;;16.78;43.64
69909;BME280;57190;47.918;8.112;2023-05-03T12:36:20;91340.31;;;16.58;44.46
69909;BME280;57190;47.918;8.112;2023-05-03T12:38:47;91343.81;;;16.96;42.62
69909;BME280;57190;47.918;8.112;2023-05-03T12:41:15;91335.19;;;17.27;41.39
69909;BME280;57190;47.918;8.112;2023-05-03T12:43:41;91337.91;;;16.94;41.63
69909;BME280;57190;47.918;8.112;2023-05-03T12:46:06;91341.41;;;16.95;43.16
69909;BME280;57190;47.918;8.112;2023-05-03T12:48:31;91334.22;;;17.04;41.09
69909;BME280;57190;47.918;8.112;2023-05-03T12:50:57;91328.53;;;16.73;42.56
69909;BME280;57190;47.918;8.112;2023-05-03T12:53:31;91335.50;;;17.26;42.83
69909;BME280;57190;47.918;8.112;2023-05-03T12:55:57;91336.75;;;17.62;41.78
69909;BME280;57190;47.918;8.112;2023-05-03T12:58:23;91329.47;;;17.76;40.27
69909;BME280;57190;47.918;8.112;2023-05-03T13:00:48;91329.47;;;17.90;40.25
69909;BME280;57190;47.918;8.112;2023-05-03T13:03:14;91314.28;;;17.94;39.99
69909;BME280;57190;47.918;8.112;2023-05-03T13:05:39;91310.09;;;17.88;40.67
69909;BME280;57190;47.918;8.112;2023-05-03T13:08:08;91314.69;;;17.87;41.13
69909;BME280;57190;47.918;8.112;2023-05-03T13:10:36;91325.75;;;17.58;42.05
69909;BME280;57190;47.918;8.112;2023-05-03T13:13:02;91314.00;;;17.54;41.48
69909;BME280;57190;47.918;8.112;2023-05-03T13:15:32;91303.28;;;17.49;41.50
69909;BME280;57190;47.918;8.112;2023-05-03T13:18:05;91312.59;;;17.56;41.03
69909;BME280;57190;47.918;8.112;2023-05-03T13:20:31;91302.84;;;17.27;38.93
69909;BME280;57190;47.918;8.112;2023-05-03T13:22:57;91302.34;;;17.25;39.20
69909;BME280;57190;47.918;8.112;2023-05-03T13:25:24;91307.16;;;17.28;40.43
69909;BME280;57190;47.918;8.112;2023-05-03T13:27:49;91301.81;;;17.56;40.97